Time;durP1;ratioP1;P1;durP2;ratioP2;P2;SDS_P1;SDS_P2;PMS_P1;PMS_P2;Temp;Humidity;BMP_temperature;BMP_pressure;BME280_temperature;BME280_humidity;BME280_pressure;Samples;Min_cycle;Max_cycle;Signal;HPM_P1;HPM_P2
2022/08/06 00:00:00;;;;;;;16.33;5.65;;;;;;;24.21;53.97;99975.94;5031164;28;20041;-75
2022/08/06 00:02:29;;;;;;;23.30;5.97;;;;;;;24.06;54.20;99953.59;5031827;28;20395;-75
2022/08/06 00:04:57;;;;;;;13.40;5.72;;;;;;;24.08;54.29;99966.00;5030341;28;20490;-75
2022/08/06 00:07:22;;;;;;;13.48;5.90;;;;;;;23.91;54.28;99948.47;5030200;28;20026;-75
2022/08/06 00:09:48;;;;;;;22.65;5.75;;;;;;;24.05;55.08;99979.31;5031108;28;20360;-76
2022/08/06 00:12:14;;;;;;;17.60;5.57;;;;;;;23.87;55.22;99951.91;5031629;28;20033;-76
2022/08/06 00:14:39;;;;;;;17.05;5.57;;;;;;;24.00;55.25;99982.75;5031481;28;20056;-76
2022/08/06 00:17:05;;;;;;;13.73;5.28;;;;;;;23.89;55.43;99972.53;5032175;28;20501;-76
2022/08/06 00:19:30;;;;;;;15.73;5.60;;;;;;;23.78;55.30;99966.97;5030117;28;20036;-76
2022/08/06 00:21:56;;;;;;;19.70;5.70;;;;;;;23.74;55.49;99946.59;5029985;28;20029;-76
2022/08/06 00:24:21;;;;;;;16.58;5.82;;;;;;;23.86;56.04;99974.91;5029955;28;20137;-76
2022/08/06 00:26:47;;;;;;;15.00;6.47;;;;;;;23.23;56.11;99891.34;5030375;28;20801;-76
2022/08/06 00:29:13;;;;;;;15.65;5.43;;;;;;;23.64;56.00;99970.94;5031508;28;20037;-76
2022/08/06 00:31:39;;;;;;;13.07;5.00;;;;;;;23.62;56.05;99979.38;5031705;28;20025;-76
2022/08/06 00:34:05;;;;;;;15.25;5.80;;;;;;;23.31;56.21;99935.66;5031164;28;20086;-75
2022/08/06 00:36:31;;;;;;;19.35;5.57;;;;;;;23.53;56.56;99977.97;5030061;28;20029;-76
2022/08/06 00:38:59;;;;;;;18.88;6.80;;;;;;;23.57;57.07;99992.88;5028958;28;20037;-76
2022/08/06 00:41:24;;;;;;;23.77;6.10;;;;;;;;;;5030104;28;20120;-76
2022/08/06 00:43:50;;;;;;;17.17;5.75;;;;;;;23.22;57.03;99942.50;5029887;28;20515;-75
2022/08/06 00:46:16;;;;;;;23.30;5.97;;;;;;;23.18;57.17;99937.69;5030474;28;20064;-75
2022/08/06 00:48:41;;;;;;;14.70;6.00;;;;;;;23.29;57.02;99959.72;5029988;28;20021;-75
2022/08/06 00:51:07;;;;;;;16.67;5.95;;;;;;;23.15;57.48;99955.38;5031598;28;20036;-75
2022/08/06 00:53:32;;;;;;;12.85;5.50;;;;;;;23.11;57.59;99945.94;5030573;28;20021;-82
2022/08/06 00:56:00;;;;;;;13.10;5.28;;;;;;;23.34;57.69;99997.34;5030770;28;20029;-83
2022/08/06 00:58:26;;;;;;;9.00;5.10;;;;;;;23.25;57.69;99982.28;5029907;28;20087;-82
2022/08/06 01:00:51;;;;;;;14.82;6.10;;;;;;;23.14;58.21;99978.31;5030459;28;20030;-82
2022/08/06 01:03:17;;;;;;;13.57;5.95;;;;;;;23.02;58.85;99960.97;5029967;28;20056;-82
2022/08/06 01:05:43;;;;;;;10.40;5.50;;;;;;;23.20;58.89;99993.00;5030081;28;20813;-81
2022/08/06 01:08:09;;;;;;;13.52;5.72;;;;;;;22.81;58.78;99928.53;5029859;28;20014;-81
2022/08/06 01:10:35;;;;;;;18.75;5.55;;;;;;;23.20;58.42;100002.06;5031517;28;20024;-82
2022/08/06 01:13:01;;;;;;;19.27;6.05;;;;;;;23.03;58.54;99981.81;5030316;28;20074;-83
2022/08/06 01:15:26;;;;;;;11.73;5.55;;;;;;;23.08;58.66;99986.59;5031720;28;20116;-82
2022/08/06 01:18:09;;;;;;;13.02;5.65;;;;;;;23.00;58.84;99986.88;5030790;28;20048;-82
2022/08/06 01:20:46;;;;;;;15.38;6.35;;;;;;;23.05;58.99;100006.22;5029625;28;20045;-83
2022/08/06 01:23:34;;;;;;;14.48;5.90;;;;;;;23.00;59.39;99998.66;5029723;28;20398;-83
2022/08/06 01:26:06;;;;;;;10.95;5.63;;;;;;;22.98;59.72;100005.38;5030356;28;20091;-83
2022/08/06 01:28:34;;;;;;;9.75;5.35;;;;;;;22.89;59.78;99984.88;5029330;28;20040;-83
2022/08/06 01:31:06;;;;;;;13.73;5.65;;;;;;;22.91;59.87;100001.88;5029045;28;20041;-83
2022/08/06 01:33:42;;;;;;;13.02;5.47;;;;;;;22.89;59.82;100004.00;5030238;28;20045;-83
2022/08/06 01:36:14;;;;;;;12.85;5.97;;;;;;;22.61;59.97;99973.47;5030461;28;20029;-82
2022/08/06 01:38:49;;;;;;;12.02;5.78;;;;;;;22.68;60.35;99986.06;5030503;28;20033;-83
2022/08/06 01:44:21;;;;;;;15.07;6.40;;;;;;;22.59;60.63;99986.53;5026185;28;20053;-82
2022/08/06 01:46:52;;;;;;;18.98;6.25;;;;;;;22.50;60.51;99976.94;5049205;28;20033;-82
2022/08/06 01:49:22;;;;;;;13.25;5.72;;;;;;;22.50;60.26;99976.94;5046730;28;20025;-82
2022/08/06 01:51:51;;;;;;;15.18;5.45;;;;;;;22.63;60.53;100017.84;5028150;28;20379;-82
2022/08/06 01:54:19;;;;;;;18.58;5.85;;;;;;;22.50;60.66;99988.69;5028289;28;20506;-82
2022/08/06 01:56:47;;;;;;;16.85;5.85;;;;;;;22.47;60.59;99983.63;5033850;28;20486;-82
2022/08/06 01:59:16;;;;;;;11.60;5.43;;;;;;;22.54;60.64;100005.50;5033719;28;20586;-82
2022/08/06 02:01:46;;;;;;;19.58;6.13;;;;;;;22.50;60.48;99993.34;5033679;28;20029;-82
2022/08/06 02:04:15;;;;;;;13.10;5.20;;;;;;;22.38;60.52;99974.84;5032264;28;20030;-81
2022/08/06 02:06:45;;;;;;;15.98;6.13;;;;;;;22.16;60.84;99946.16;5033711;28;20483;-82
2022/08/06 02:09:17;;;;;;;15.60;6.07;;;;;;;22.38;61.21;99979.50;5048118;28;20025;-82
2022/08/06 02:11:45;;;;;;;18.27;6.95;;;;;;;22.34;61.08;99973.63;5029120;28;20120;-82
2022/08/06 02:14:14;;;;;;;9.55;5.35;;;;;;;22.41;61.10;99994.59;5048107;28;20037;-83
2022/08/06 02:16:42;;;;;;;10.07;5.72;;;;;;;22.41;60.87;100002.81;5032843;28;20037;-82
2022/08/06 02:19:09;;;;;;;14.70;5.55;;;;;;;22.28;60.85;99990.88;5025348;28;20021;-82
2022/08/06 02:21:37;;;;;;;13.95;5.97;;;;;;;22.35;61.39;99999.88;5033324;28;20088;-82
2022/08/06 02:24:06;;;;;;;9.10;5.75;;;;;;;22.34;61.19;99997.34;5025713;28;20124;-82
2022/08/06 02:26:35;;;;;;;12.50;5.35;;;;;;;22.32;60.99;99997.56;5033055;28;20438;-82
2022/08/06 02:29:03;;;;;;;12.90;5.70;;;;;;;22.30;60.93;99996.13;5032360;28;20033;-82
2022/08/06 02:31:29;;;;;;;10.55;5.47;;;;;;;22.11;60.72;99965.13;5032149;28;20075;-82
2022/08/06 02:33:55;;;;;;;9.25;5.80;;;;;;;22.21;61.04;99987.34;5028201;28;20026;-82
2022/08/06 02:36:29;;;;;;;16.27;5.82;;;;;;;21.92;61.51;99951.53;5033936;28;20292;-81
2022/08/06 02:39:23;;;;;;;15.88;6.07;;;;;;;22.08;61.84;99979.22;5018952;28;20040;-82
2022/08/06 02:42:20;;;;;;;18.13;6.30;;;;;;;22.13;62.12;99992.22;5021490;28;20044;-82
2022/08/06 02:45:12;;;;;;;17.02;6.30;;;;;;;22.10;62.23;99995.38;5018834;28;20040;-82
2022/08/06 02:47:45;;;;;;;16.27;6.07;;;;;;;22.08;62.63;99995.59;5022878;28;20041;-75
2022/08/06 02:50:14;;;;;;;14.10;6.00;;;;;;;22.07;63.08;99999.41;5011996;28;20029;-82
2022/08/06 02:52:40;;;;;;;15.77;6.47;;;;;;;22.05;63.05;99996.03;5034370;28;20037;-82
2022/08/06 02:55:18;;;;;;;14.25;5.72;;;;;;;21.98;63.05;99986.19;5027390;28;20025;-82
2022/08/06 02:57:52;;;;;;;12.13;5.85;;;;;;;21.98;63.02;100000.69;5019267;28;20102;-82
2022/08/06 03:00:19;;;;;;;13.00;5.65;;;;;;;21.94;63.45;99995.88;5031171;28;20037;-81
2022/08/06 03:02:47;;;;;;;12.48;6.28;;;;;;;21.93;63.48;99999.66;5031120;28;20479;-74
2022/08/06 03:05:19;;;;;;;20.48;6.75;;;;;;;21.90;63.50;99994.63;5046902;28;20025;-75
2022/08/06 03:07:48;;;;;;;23.85;6.68;;;;;;;21.75;63.37;99988.56;5021661;28;20762;-76
2022/08/06 03:10:16;;;;;;;16.40;6.10;;;;;;;21.71;63.37;99979.94;5027869;28;20106;-82
2022/08/06 03:12:43;;;;;;;15.10;6.18;;;;;;;21.67;63.72;99973.22;5034019;28;20457;-82
2022/08/06 03:15:10;;;;;;;20.98;6.20;;;;;;;21.72;63.69;99983.50;5031640;28;20642;-82
2022/08/06 03:17:37;;;;;;;20.40;5.85;;;;;;;21.72;63.46;99991.69;5032788;28;20041;-82
2022/08/06 03:20:05;;;;;;;21.15;6.43;;;;;;;21.63;63.33;99974.72;5032290;28;20120;-82
2022/08/06 03:22:33;;;;;;;16.70;5.65;;;;;;;21.74;63.70;99997.81;5032968;28;20040;-83
2022/08/06 03:24:59;;;;;;;17.58;6.35;;;;;;;21.71;63.95;99992.75;5048266;28;20586;-83
2022/08/06 03:27:26;;;;;;;12.00;6.03;;;;;;;21.57;64.21;99974.75;5031067;28;20035;-82
2022/08/06 03:29:53;;;;;;;20.48;6.45;;;;;;;21.67;63.83;99997.78;5032297;28;20034;-83
2022/08/06 03:32:20;;;;;;;12.70;5.22;;;;;;;21.37;64.09;99958.41;5032466;28;20057;-83
2022/08/06 03:34:46;;;;;;;12.00;5.57;;;;;;;21.42;64.36;99965.94;5031323;28;20023;-83
2022/08/06 03:37:13;;;;;;;17.85;6.03;;;;;;;21.37;64.27;99957.53;5031691;28;20056;-82
2022/08/06 03:39:41;;;;;;;13.77;5.80;;;;;;;21.60;64.65;99999.69;5030451;28;20021;-83
2022/08/06 03:42:07;;;;;;;13.30;5.75;;;;;;;21.45;64.31;99979.16;5028076;28;20032;-82
2022/08/06 03:44:33;;;;;;;11.43;5.93;;;;;;;21.39;63.94;99977.28;5031194;28;20037;-83
2022/08/06 03:47:05;;;;;;;12.98;5.85;;;;;;;21.42;63.86;99974.13;5032141;28;20025;-82
2022/08/06 03:49:36;;;;;;;16.63;5.68;;;;;;;21.62;63.68;100007.69;5028658;28;20235;-83
2022/08/06 03:52:02;;;;;;;14.18;5.53;;;;;;;21.48;64.14;99979.56;5031049;28;20449;-83
2022/08/06 03:54:35;;;;;;;13.82;6.00;;;;;;;21.63;63.89;100012.06;5031782;28;20117;-81
2022/08/06 03:57:10;;;;;;;13.55;5.40;;;;;;;21.61;63.53;100008.75;5031734;28;20025;-82
2022/08/06 03:59:43;;;;;;;12.73;6.28;;;;;;;21.59;62.98;100008.94;5026162;28;20029;-83
2022/08/06 04:02:11;;;;;;;11.13;5.18;;;;;;;21.50;62.76;99988.38;5031170;28;20025;-81
2022/08/06 04:04:38;;;;;;;16.73;5.57;;;;;;;21.43;62.73;99984.84;5030857;28;20033;-82
2022/08/06 04:07:05;;;;;;;15.55;5.40;;;;;;;21.42;63.16;99974.97;5031909;28;20021;-81
2022/08/06 04:09:34;;;;;;;15.32;6.10;;;;;;;21.49;63.02;99989.44;5031500;28;20021;-82
2022/08/06 04:12:01;;;;;;;9.27;6.20;;;;;;;21.64;62.75;100011.88;5030226;28;20052;-81
2022/08/06 04:14:29;;;;;;;14.23;5.65;;;;;;;21.68;62.50;100021.31;5029523;28;20140;-81
2022/08/06 04:16:55;;;;;;;14.48;6.15;;;;;;;21.61;62.95;99989.63;5047112;28;20132;-82
2022/08/06 04:19:21;;;;;;;13.02;5.90;;;;;;;21.73;62.71;100010.63;5030263;28;20128;-82
2022/08/06 04:21:47;;;;;;;10.52;5.78;;;;;;;21.88;63.21;100021.28;5031539;28;20025;-81
2022/08/06 04:24:14;;;;;;;13.55;6.43;;;;;;;21.84;63.98;100003.66;5030034;28;20120;-81
2022/08/06 04:26:44;;;;;;;16.25;6.40;;;;;;;22.03;62.46;100019.16;5028016;28;20037;-82
2022/08/06 04:29:16;;;;;;;16.40;5.82;;;;;;;22.17;62.12;100013.44;5030146;28;20056;-74
2022/08/06 04:31:44;;;;;;;13.30;6.32;;;;;;;22.24;62.24;100002.47;5029584;28;20025;-75
2022/08/06 04:34:11;;;;;;;13.80;6.20;;;;;;;22.37;61.81;100012.50;5030784;28;20446;-75
2022/08/06 04:36:37;;;;;;;19.77;6.55;;;;;;;22.41;60.77;100003.66;5030449;28;20036;-75
2022/08/06 04:39:03;;;;;;;22.08;6.25;;;;;;;22.68;60.42;100020.75;5030585;28;20493;-76
2022/08/06 04:41:28;;;;;;;19.15;6.75;;;;;;;22.59;60.07;99975.59;5030496;28;20025;-75
2022/08/06 04:43:54;;;;;;;17.02;6.00;;;;;;;23.04;58.88;100035.44;5029447;28;20542;-75
2022/08/06 04:46:20;;;;;;;11.25;6.32;;;;;;;23.18;58.28;100034.28;5030701;28;20039;-75
2022/08/06 04:48:47;;;;;;;16.55;6.72;;;;;;;23.31;58.25;100034.19;5030735;28;20475;-75
2022/08/06 04:51:14;;;;;;;14.23;6.00;;;;;;;23.43;58.18;100035.16;5025730;28;20021;-75
2022/08/06 04:53:41;;;;;;;13.60;6.18;;;;;;;23.50;57.96;100015.91;5029014;28;20044;-75
2022/08/06 04:56:08;;;;;;;45.38;8.77;;;;;;;23.73;57.64;100032.56;5027714;28;20025;-75
2022/08/06 04:58:34;;;;;;;36.08;8.23;;;;;;;23.89;56.82;100031.97;5024264;28;20026;-75
2022/08/06 05:01:00;;;;;;;20.48;6.55;;;;;;;24.04;56.38;100024.22;5023421;28;20037;-76
2022/08/06 05:03:26;;;;;;;22.08;7.57;;;;;;;23.94;55.54;99985.56;5008961;28;20029;-76
2022/08/06 05:06:07;;;;;;;26.88;8.90;;;;;;;24.37;55.10;100028.25;5020333;28;20029;-76
2022/08/06 05:08:37;;;;;;;26.33;7.50;;;;;;;24.48;54.53;100012.06;5020300;28;20053;-74
2022/08/06 05:11:10;;;;;;;15.00;6.50;;;;;;;24.67;53.69;100021.97;5014110;28;20041;-75
2022/08/06 05:13:39;;;;;;;24.60;6.88;;;;;;;24.73;53.23;99996.34;5018535;28;20029;-75
2022/08/06 05:16:09;;;;;;;14.43;6.55;;;;;;;24.98;52.37;100003.34;5016147;28;20418;-76
2022/08/06 05:18:39;;;;;;;20.92;6.65;;;;;;;25.28;52.09;100019.75;5014881;28;20029;-75
2022/08/06 05:21:07;;;;;;;14.25;6.18;;;;;;;25.33;51.72;99992.44;5020312;28;20079;-75
2022/08/06 05:23:40;;;;;;;22.10;6.95;;;;;;;25.65;51.36;100013.81;5012789;28;20026;-75
2022/08/06 05:26:06;;;;;;;21.40;6.85;;;;;;;25.81;51.29;100015.84;5019836;28;20111;-75
2022/08/06 05:28:32;;;;;;;16.83;6.78;;;;;;;25.95;50.70;100011.75;5021417;28;20037;-75
2022/08/06 05:30:58;;;;;;;28.95;7.22;;;;;;;26.15;50.33;100020.47;5020251;28;20042;-76
2022/08/06 05:33:23;;;;;;;15.32;6.60;;;;;;;26.34;50.38;100032.13;5027667;28;20385;-74
2022/08/06 05:35:49;;;;;;;15.73;6.32;;;;;;;26.28;50.36;99997.38;5017252;28;20038;-75
2022/08/06 05:38:14;;;;;;;10.23;5.93;;;;;;;26.65;49.03;100034.47;5024049;28;20554;-74
2022/08/06 05:40:40;;;;;;;10.93;5.30;;;;;;;26.81;47.99;100019.06;5021754;28;20042;-74
2022/08/06 05:43:05;;;;;;;10.20;4.68;;;;;;;26.92;46.52;99988.72;5026941;28;20021;-75
2022/08/06 05:45:31;;;;;;;8.45;4.60;;;;;;;27.31;45.60;100014.50;5027178;28;20044;-76
2022/08/06 05:48:02;;;;;;;13.75;5.30;;;;;;;27.58;44.96;100021.84;5016201;28;20057;-82
2022/08/06 05:50:33;;;;;;;8.95;5.07;;;;;;;27.80;43.81;100030.16;5033332;28;20033;-81
2022/08/06 05:53:16;;;;;;;8.93;4.53;;;;;;;27.91;43.57;100008.03;5026687;28;20448;-80
2022/08/06 05:55:59;;;;;;;8.50;4.53;;;;;;;28.26;42.29;100025.06;5024730;28;20089;-80
2022/08/06 05:58:33;;;;;;;7.50;4.30;;;;;;;28.43;41.88;100003.72;5033127;28;20021;-81
2022/08/06 06:01:02;;;;;;;9.23;4.45;;;;;;;28.69;41.03;100006.81;5033564;28;20037;-80
2022/08/06 06:03:28;;;;;;;7.60;3.75;;;;;;;28.97;40.30;100012.91;5030118;28;20480;-80
2022/08/06 06:05:55;;;;;;;7.53;4.25;;;;;;;29.11;40.12;100003.13;5027683;28;20057;-81
2022/08/06 06:08:21;;;;;;;9.27;4.40;;;;;;;29.36;40.21;100013.56;5033348;28;20501;-80
2022/08/06 06:10:47;;;;;;;11.43;4.40;;;;;;;29.59;39.74;100027.84;5031947;28;20152;-80
2022/08/06 06:13:14;;;;;;;7.03;4.45;;;;;;;29.70;39.02;100018.56;5032207;28;20053;-80
2022/08/06 06:15:48;;;;;;;11.20;4.28;;;;;;;29.85;37.96;100009.50;5016334;28;20053;-79
2022/08/06 06:18:32;;;;;;;7.80;4.22;;;;;;;30.15;37.30;100032.66;5025258;28;20031;-80
2022/08/06 06:21:10;;;;;;;;;;;;;;;30.27;37.45;100038.00;5022025;28;20082;-80
2022/08/06 06:23:46;;;;;;;5.05;3.53;;;;;;;30.50;36.72;100043.09;5019189;28;19956;-80
2022/08/06 06:26:34;;;;;;;10.82;3.90;;;;;;;30.59;35.34;100027.59;5018487;28;20107;-81
2022/08/06 06:29:18;;;;;;;5.15;3.47;;;;;;;30.87;35.04;100045.72;5018845;28;20026;-81
2022/08/06 06:32:09;;;;;;;6.22;3.33;;;;;;;30.89;34.04;100024.97;5025900;28;20032;-80
2022/08/06 06:34:51;;;;;;;8.07;3.58;;;;;;;31.01;33.45;100014.44;5027535;28;20566;-81
2022/08/06 06:37:44;;;;;;;3.40;2.75;;;;;;;31.26;31.46;100038.56;5023753;28;20800;-81
2022/08/06 06:40:25;;;;;;;8.05;2.95;;;;;;;31.41;31.51;100052.50;5024022;28;20037;-81
2022/08/06 06:43:15;;;;;;;4.38;2.90;;;;;;;31.44;30.79;100038.06;5028287;28;20033;-81
2022/08/06 06:46:08;;;;;;;4.03;3.15;;;;;;;31.71;30.70;100042.22;5028798;28;20030;-81
2022/08/06 06:49:00;;;;;;;5.03;3.00;;;;;;;31.88;30.90;100047.47;5030216;28;20103;-80
2022/08/06 06:51:33;;;;;;;5.45;2.90;;;;;;;32.01;30.55;100049.66;5023950;28;20108;-81
2022/08/06 06:53:59;;;;;;;8.85;2.55;;;;;;;32.13;30.60;100045.50;5030129;28;20037;-81
2022/08/06 06:56:29;;;;;;;4.18;2.53;;;;;;;32.20;28.59;100040.47;5031361;28;20082;-81
2022/08/06 06:59:19;;;;;;;9.27;2.70;;;;;;;32.35;27.95;100051.56;5031370;28;20048;-81
2022/08/06 07:01:47;;;;;;;5.78;2.55;;;;;;;32.37;27.76;100027.09;5031631;28;20072;-81
2022/08/06 07:04:16;;;;;;;5.25;2.90;;;;;;;32.63;27.95;100042.53;5030331;28;20025;-80
2022/08/06 07:06:46;;;;;;;5.05;2.83;;;;;;;32.78;28.38;100033.28;5031454;28;20032;-81
2022/08/06 07:09:22;;;;;;;5.15;3.15;;;;;;;32.87;28.09;100028.00;5025329;28;20087;-81
2022/08/06 07:11:50;;;;;;;4.45;2.92;;;;;;;33.02;28.41;100030.69;5031790;28;20033;-81
2022/08/06 07:14:19;;;;;;;7.53;2.58;;;;;;;33.12;28.64;100027.84;5029287;28;20441;-80
2022/08/06 07:16:46;;;;;;;11.32;2.85;;;;;;;33.25;28.57;100033.56;5017526;28;20035;-81
2022/08/06 07:19:13;;;;;;;4.70;2.60;;;;;;;33.30;28.49;100022.41;5018090;28;20100;-81
2022/08/06 07:21:43;;;;;;;3.53;2.25;;;;;;;33.58;28.44;100040.28;5019255;28;20025;-81
2022/08/06 07:24:11;;;;;;;6.00;2.70;;;;;;;33.68;27.84;100029.88;5029531;28;20037;-81
2022/08/06 07:26:38;;;;;;;6.63;3.17;;;;;;;33.73;28.13;100023.44;5029645;28;20446;-82
2022/08/06 07:29:04;;;;;;;4.78;2.70;;;;;;;33.87;28.16;100033.63;5029567;28;20478;-80
2022/08/06 07:31:30;;;;;;;6.22;3.00;;;;;;;34.02;27.85;100033.47;5030762;28;20037;-80
2022/08/06 07:33:57;;;;;;;10.27;3.55;;;;;;;34.11;28.00;100040.03;5030826;28;20036;-80
2022/08/06 07:36:25;;;;;;;9.98;3.42;;;;;;;34.04;28.10;100008.09;5030755;28;20026;-81
2022/08/06 07:38:58;;;;;;;7.20;2.97;;;;;;;34.13;27.52;100007.16;5029209;28;20029;-80
2022/08/06 07:41:25;;;;;;;11.05;2.92;;;;;;;34.37;27.38;100032.28;5019514;28;20032;-80
2022/08/06 07:43:58;;;;;;;7.07;3.20;;;;;;;34.32;27.19;100005.28;5019436;28;20030;-80
2022/08/06 07:46:28;;;;;;;7.95;2.63;;;;;;;34.62;27.32;100039.47;5025491;28;20474;-81
2022/08/06 07:48:57;;;;;;;8.10;3.15;;;;;;;34.73;27.23;100035.41;5033004;28;20578;-75
2022/08/06 07:51:35;;;;;;;7.15;2.70;;;;;;;34.83;27.18;100032.47;5017394;28;20029;-75
2022/08/06 07:54:03;;;;;;;3.85;2.67;;;;;;;34.83;26.83;100019.38;5024132;28;20115;-75
2022/08/06 07:56:30;;;;;;;5.32;2.40;;;;;;;34.86;26.66;100015.19;5019815;28;20026;-75
2022/08/06 07:58:57;;;;;;;10.30;2.78;;;;;;;35.07;26.12;100031.31;5016977;28;20128;-74
2022/08/06 08:01:24;;;;;;;10.60;3.35;;;;;;;35.15;25.94;100036.22;5029130;28;20030;-75
2022/08/06 08:06:35;;;;;;;7.18;3.10;;;;;;;35.14;25.68;100019.78;5033641;28;20091;-82
2022/08/06 08:09:07;;;;;;;6.75;2.88;;;;;;;35.12;25.84;100020.09;5032370;28;20030;-80
2022/08/06 08:11:40;;;;;;;3.90;2.50;;;;;;;35.27;25.74;100044.13;5030879;28;20022;-80
2022/08/06 08:14:07;;;;;;;8.02;3.20;;;;;;;35.37;25.77;100043.97;5029490;28;20037;-81
2022/08/06 08:16:33;;;;;;;6.13;2.80;;;;;;;35.44;25.51;100038.84;5028849;28;20454;-81
2022/08/06 08:18:59;;;;;;;9.02;3.20;;;;;;;35.55;25.91;100043.09;5030419;28;20021;-81
2022/08/06 08:21:25;;;;;;;6.25;2.80;;;;;;;35.49;25.74;100017.25;5029852;28;20475;-81
2022/08/06 08:23:51;;;;;;;8.43;2.90;;;;;;;35.66;25.63;100037.03;5029056;28;20260;-82
2022/08/06 08:26:17;;;;;;;9.65;3.00;;;;;;;35.74;25.44;100039.16;5029375;28;20061;-82
2022/08/06 08:28:42;;;;;;;9.93;2.85;;;;;;;35.61;25.26;100013.97;5028966;28;20494;-81
2022/08/06 08:31:08;;;;;;;10.52;2.90;;;;;;;35.77;25.18;100038.53;5024605;28;20042;-82
2022/08/06 08:33:34;;;;;;;7.75;2.85;;;;;;;35.72;25.05;100016.28;5021357;28;20025;-81
2022/08/06 08:36:01;;;;;;;5.35;2.78;;;;;;;35.74;25.00;100014.03;5024216;28;20029;-81
2022/08/06 08:38:35;;;;;;;7.05;2.95;;;;;;;35.93;24.95;100033.53;5029728;28;20036;-82
2022/08/06 08:41:23;;;;;;;5.90;2.60;;;;;;;35.97;25.07;100032.59;5024469;28;20033;-81
2022/08/06 08:44:21;;;;;;;3.80;2.70;;;;;;;36.16;25.14;100040.88;5045044;28;20029;-80
2022/08/06 08:46:48;;;;;;;6.80;2.83;;;;;;;36.27;24.70;100040.41;5020448;28;20061;-81
2022/08/06 08:49:20;;;;;;;6.07;2.60;;;;;;;36.31;24.57;100032.25;5039047;28;20026;-82
2022/08/06 08:51:46;;;;;;;9.88;2.92;;;;;;;36.36;24.38;100035.75;5013445;28;20029;-82
2022/08/06 08:54:16;;;;;;;7.15;2.65;;;;;;;36.48;24.58;100043.63;5021697;28;20462;-82
2022/08/06 08:56:42;;;;;;;3.65;2.20;;;;;;;36.46;24.44;100041.13;5025572;28;20887;-82
2022/08/06 08:59:08;;;;;;;2.72;2.35;;;;;;;36.51;24.38;100043.00;5025614;28;19921;-82
2022/08/06 09:01:34;;;;;;;4.60;2.25;;;;;;;36.57;24.35;100030.56;5028482;28;20116;-82
2022/08/06 09:04:04;;;;;;;4.78;2.58;;;;;;;36.62;24.41;100033.25;5029024;28;20029;-82
2022/08/06 09:06:32;;;;;;;5.07;2.70;;;;;;;36.42;24.63;100000.16;5045163;28;20025;-82
2022/08/06 09:09:03;;;;;;;5.35;2.92;;;;;;;36.55;24.95;100024.44;5030047;28;20497;-81
2022/08/06 09:11:29;;;;;;;4.07;2.13;;;;;;;36.69;24.17;100030.03;5041408;28;20112;-81
2022/08/06 09:13:54;;;;;;;4.88;2.17;;;;;;;36.61;24.34;100012.03;5030371;28;20040;-82
2022/08/06 09:16:20;;;;;;;9.95;2.80;;;;;;;36.48;24.24;100005.31;5029860;28;20037;-82
2022/08/06 09:18:46;;;;;;;7.13;2.33;;;;;;;36.78;23.82;100036.59;5027724;28;20040;-81
2022/08/06 09:21:12;;;;;;;3.00;2.28;;;;;;;36.67;24.11;100016.38;5028628;28;20033;-81
2022/08/06 09:23:39;;;;;;;5.38;2.47;;;;;;;36.80;24.00;100037.06;5028284;28;20479;-82
2022/08/06 09:26:05;;;;;;;4.35;2.35;;;;;;;36.83;24.02;100044.84;5028294;28;20060;-82
2022/08/06 09:28:39;;;;;;;7.60;2.42;;;;;;;36.84;24.08;100036.13;5029864;28;20387;-82
2022/08/06 09:31:06;;;;;;;4.03;2.28;;;;;;;36.85;24.24;100035.03;5028613;28;20029;-83
2022/08/06 09:33:36;;;;;;;3.97;2.53;;;;;;;36.84;24.30;100036.13;5028934;28;20033;-82
2022/08/06 09:36:13;;;;;;;5.43;2.53;;;;;;;36.89;24.40;100038.00;5026221;28;20037;-82
2022/08/06 09:38:53;;;;;;;2.70;2.10;;;;;;;36.93;25.18;100037.06;5030252;28;20025;-82
2022/08/06 09:41:24;;;;;;;3.65;2.72;;;;;;;36.97;25.07;100026.88;5044833;28;20026;-80
2022/08/06 09:43:52;;;;;;;5.45;2.65;;;;;;;37.04;24.59;100030.06;5029104;28;20097;-82
2022/08/06 09:46:34;;;;;;;3.33;2.67;;;;;;;36.95;24.99;100012.41;5029149;28;20398;-82
2022/08/06 09:49:02;;;;;;;4.40;2.63;;;;;;;36.91;24.43;100000.16;5040635;28;20479;-82
2022/08/06 09:51:28;;;;;;;4.65;2.58;;;;;;;37.13;24.89;100035.78;5028331;28;20033;-76
2022/08/06 09:53:56;;;;;;;5.05;2.58;;;;;;;37.08;24.80;100022.72;5028365;28;20029;-75
2022/08/06 09:56:23;;;;;;;7.45;3.05;;;;;;;37.07;24.92;100023.84;5026919;28;20060;-76
2022/08/06 09:58:49;;;;;;;3.92;3.13;;;;;;;36.92;25.56;100006.59;5026801;28;20025;-76
2022/08/06 10:01:20;;;;;;;4.80;3.08;;;;;;;36.88;25.46;100006.41;5026565;28;20036;-76
2022/08/06 10:03:46;;;;;;;5.28;2.85;;;;;;;37.05;25.43;100028.09;5028220;28;20036;-76
2022/08/06 10:06:14;;;;;;;8.18;2.65;;;;;;;36.94;25.24;100007.13;5026928;28;20036;-77
2022/08/06 10:08:41;;;;;;;4.40;2.63;;;;;;;36.81;25.62;99989.22;5043694;28;20021;-77
2022/08/06 10:11:07;;;;;;;3.03;2.72;;;;;;;37.01;25.43;100018.69;5026429;28;20196;-76
2022/08/06 10:13:33;;;;;;;5.93;2.83;;;;;;;36.95;25.54;100000.38;5031259;28;20041;-82
2022/08/06 10:16:13;;;;;;;4.43;2.90;;;;;;;37.13;25.64;100010.59;5032522;28;20034;-82
2022/08/06 10:18:41;;;;;;;5.72;2.90;;;;;;;37.28;25.40;100024.22;5032705;28;20475;-82
2022/08/06 10:21:22;;;;;;;3.72;3.42;;;;;;;37.14;25.06;99987.06;5032262;28;20040;-83
2022/08/06 10:24:01;;;;;;;5.00;2.75;;;;;;;37.36;24.89;100006.69;5033075;28;20029;-82
2022/08/06 10:26:32;;;;;;;6.07;3.53;;;;;;;37.45;24.59;100024.34;5032647;28;20108;-82
2022/08/06 10:29:04;;;;;;;6.88;2.92;;;;;;;37.42;24.53;100016.56;5031798;28;20120;-82
2022/08/06 10:31:31;;;;;;;3.22;2.72;;;;;;;37.28;24.02;99999.03;5029690;28;20042;-82
2022/08/06 10:34:11;;;;;;;3.90;2.45;;;;;;;37.35;24.36;100005.00;5022188;28;20032;-84
2022/08/06 10:37:02;;;;;;;4.10;2.63;;;;;;;37.34;24.32;100008.97;5045311;28;20033;-81
2022/08/06 10:39:36;;;;;;;2.70;2.50;;;;;;;37.42;24.12;100020.22;5030791;28;20034;-82
2022/08/06 10:42:03;;;;;;;5.18;3.00;;;;;;;37.39;23.85;100008.84;5032519;28;20030;-81
2022/08/06 10:44:30;;;;;;;4.65;2.72;;;;;;;37.26;24.32;99992.94;5047978;28;20044;-81
2022/08/06 10:46:55;;;;;;;5.95;2.90;;;;;;;37.25;24.37;99997.72;5032672;28;20517;-82
2022/08/06 10:49:22;;;;;;;3.00;2.63;;;;;;;37.34;24.29;100007.00;5032612;28;20111;-83
2022/08/06 10:51:49;;;;;;;4.90;2.97;;;;;;;37.35;24.34;100017.03;5029802;28;20025;-82
2022/08/06 10:54:15;;;;;;;3.05;2.85;;;;;;;37.19;24.02;99984.16;5032411;28;20021;-82
2022/08/06 10:56:41;;;;;;;3.58;2.60;;;;;;;37.36;23.80;99999.09;5030950;28;20025;-76
2022/08/06 10:59:07;;;;;;;6.70;2.92;;;;;;;37.36;23.72;100004.69;5030971;28;20034;-76
2022/08/06 11:01:43;;;;;;;7.28;2.67;;;;;;;37.14;23.79;99981.47;5029814;28;20047;-75
2022/08/06 11:04:30;;;;;;;6.88;3.17;;;;;;;37.10;24.15;99970.06;5020912;28;20423;-76
2022/08/06 11:07:05;;;;;;;4.55;3.42;;;;;;;37.20;24.18;99991.41;5029772;28;20110;-76
2022/08/06 11:09:46;;;;;;;3.38;2.60;;;;;;;37.22;24.19;99994.69;5026969;28;20030;-77
2022/08/06 11:12:30;;;;;;;8.23;2.90;;;;;;;37.17;24.03;99981.63;5027381;28;20120;-76
2022/08/06 11:14:58;;;;;;;4.20;2.78;;;;;;;37.18;23.93;99955.38;5029313;28;20053;-76
2022/08/06 11:17:24;;;;;;;4.97;2.85;;;;;;;37.42;23.36;99971.78;5030990;28;20033;-80
2022/08/06 11:19:50;;;;;;;4.18;2.88;;;;;;;37.33;23.76;99966.16;5031080;28;20044;-80
2022/08/06 11:22:35;;;;;;;2.70;2.50;;;;;;;37.47;23.70;99980.06;5031010;28;20029;-80
2022/08/06 11:25:03;;;;;;;4.07;2.90;;;;;;;37.47;23.59;99971.69;5030822;28;20057;-80
2022/08/06 11:27:51;;;;;;;3.38;2.92;;;;;;;37.59;23.43;99971.91;5030743;28;20021;-81
2022/08/06 11:30:20;;;;;;;3.13;2.72;;;;;;;37.56;23.54;99955.75;5026799;28;20033;-81
2022/08/06 11:32:52;;;;;;;2.70;2.50;;;;;;;37.52;23.43;99954.75;5029553;28;20034;-81
2022/08/06 11:35:32;;;;;;;4.40;3.05;;;;;;;37.64;23.55;99971.81;5045619;28;20736;-81
2022/08/06 11:37:59;;;;;;;5.97;3.00;;;;;;;37.42;23.46;99941.84;5031200;28;20673;-81
2022/08/06 11:40:24;;;;;;;6.68;2.90;;;;;;;37.65;23.53;99953.88;5028946;28;20029;-80
2022/08/06 11:42:50;;;;;;;5.45;2.83;;;;;;;37.73;23.36;99967.09;5023221;28;20026;-81